Time;durP1;ratioP1;P1;durP2;ratioP2;P2;SDS_P1;SDS_P2;PMS_P1;PMS_P2;Temp;Humidity;BMP_temperature;BMP_pressure;BME280_temperature;BME280_humidity;BME280_pressure;Samples;Min_cycle;Max_cycle;Signal;HPM_P1;HPM_P2
2021/06/04 00:02:05;;;;;;;0.40;0.40;;;16.10;75.70;;;;;;5113584;28;20135;-68
2021/06/04 00:04:32;;;;;;;0.28;0.28;;;16.00;76.00;;;;;;5113347;28;20062;-68
2021/06/04 00:06:59;;;;;;;0.43;0.30;;;16.00;76.00;;;;;;5121670;27;20047;-68
2021/06/04 00:09:26;;;;;;;0.28;0.22;;;16.10;75.90;;;;;;5113669;28;20662;-68
2021/06/04 00:11:57;;;;;;;0.30;0.30;;;16.10;75.70;;;;;;5113470;28;20059;-67
2021/06/04 00:14:25;;;;;;;;;;;16.10;76.10;;;;;;5114263;28;20554;-68
2021/06/04 00:16:58;;;;;;;0.35;0.35;;;16.10;76.40;;;;;;5113194;28;20391;-68
2021/06/04 00:19:29;;;;;;;0.30;0.30;;;16.10;76.00;;;;;;5113178;28;20388;-68
2021/06/04 00:22:18;;;;;;;0.43;0.35;;;16.10;76.10;;;;;;5113110;28;20081;-68
2021/06/04 00:24:47;;;;;;;0.80;0.40;;;16.10;76.00;;;;;;5113026;28;20048;-67
2021/06/04 00:27:14;;;;;;;0.25;0.25;;;16.10;76.00;;;;;;5113405;28;20471;-67
2021/06/04 00:29:44;;;;;;;0.30;0.20;;;16.10;76.40;;;;;;5113541;28;20123;-68
2021/06/04 00:32:12;;;;;;;0.20;0.20;;;16.00;76.50;;;;;;5113198;28;20177;-68
2021/06/04 00:34:40;;;;;;;0.30;0.30;;;16.00;76.60;;;;;;5112659;28;20047;-68
2021/06/04 00:37:07;;;;;;;0.30;0.22;;;15.90;76.80;;;;;;5112187;28;20403;-68
2021/06/04 00:39:35;;;;;;;0.40;0.40;;;15.90;77.00;;;;;;5113226;28;20092;-68
2021/06/04 00:42:16;;;;;;;0.30;0.30;;;15.90;77.10;;;;;;5113087;28;20132;-68
2021/06/04 00:44:45;;;;;;;0.20;0.20;;;16.00;77.00;;;;;;5104959;27;20391;-67
2021/06/04 00:47:12;;;;;;;0.52;0.50;;;16.00;76.80;;;;;;5104200;28;20106;-67
2021/06/04 00:49:40;;;;;;;0.40;0.32;;;16.00;76.80;;;;;;5112247;28;20050;-68
2021/06/04 00:52:17;;;;;;;0.30;0.30;;;16.10;76.90;;;;;;5112691;28;20050;-68
2021/06/04 00:54:44;;;;;;;0.35;0.35;;;16.10;76.60;;;;;;5100867;28;20494;-67
2021/06/04 00:57:11;;;;;;;0.20;0.20;;;16.10;76.50;;;;;;5112582;28;20134;-67
2021/06/04 00:59:39;;;;;;;0.25;0.25;;;16.10;76.20;;;;;;5112298;28;20486;-67
2021/06/04 01:02:09;;;;;;;0.20;0.20;;;16.20;76.10;;;;;;5111830;28;20453;-68
2021/06/04 01:04:37;;;;;;;0.32;0.20;;;16.20;76.00;;;;;;5112300;28;20079;-68
2021/06/04 01:07:16;;;;;;;0.20;0.20;;;16.20;75.90;;;;;;5112476;28;20043;-68
2021/06/04 01:09:49;;;;;;;0.20;0.20;;;16.20;75.70;;;;;;5112397;28;20077;-68
2021/06/04 01:12:35;;;;;;;0.30;0.30;;;16.20;75.50;;;;;;5112603;28;20487;-67
2021/06/04 01:15:24;;;;;;;0.47;0.40;;;16.20;75.50;;;;;;5112402;28;20463;-70
2021/06/04 01:18:08;;;;;;;0.32;0.20;;;16.20;75.40;;;;;;5112309;28;20487;-70
2021/06/04 01:20:49;;;;;;;0.20;0.20;;;16.20;75.50;;;;;;5112569;28;20040;-70
2021/06/04 01:23:37;;;;;;;0.15;0.15;;;16.20;75.50;;;;;;5112546;28;20051;-70
2021/06/04 01:26:35;;;;;;;0.40;0.40;;;16.20;75.60;;;;;;5093697;28;20608;-70
2021/06/04 01:29:10;;;;;;;0.20;0.20;;;16.10;75.70;;;;;;5112454;28;20177;-70
2021/06/04 01:31:39;;;;;;;0.40;0.40;;;16.00;75.90;;;;;;5112589;28;20056;-71
2021/06/04 01:34:19;;;;;;;0.40;0.40;;;15.90;76.10;;;;;;5112278;28;20181;-70
2021/06/04 01:37:03;;;;;;;0.30;0.20;;;15.80;76.50;;;;;;5112623;28;20431;-71
2021/06/04 01:39:32;;;;;;;0.25;0.25;;;15.80;76.60;;;;;;5102829;28;20092;-70
2021/06/04 01:42:01;;;;;;;0.50;0.20;;;15.70;76.80;;;;;;5111993;28;20119;-70
2021/06/04 01:44:37;;;;;;;0.20;0.20;;;15.70;77.10;;;;;;5112007;28;20497;-70
2021/06/04 01:47:10;;;;;;;0.30;0.30;;;15.60;77.30;;;;;;5111936;28;20055;-70
2021/06/04 01:49:40;;;;;;;0.50;0.47;;;15.60;77.60;;;;;;5112444;28;20556;-70
2021/06/04 01:52:32;;;;;;;0.20;0.20;;;15.50;77.60;;;;;;5111895;28;20063;-71
2021/06/04 01:55:07;;;;;;;0.40;0.40;;;15.50;77.70;;;;;;5113831;28;20062;-70
2021/06/04 01:57:41;;;;;;;0.15;0.15;;;15.40;77.70;;;;;;5115764;28;20136;-70
2021/06/04 02:00:10;;;;;;;0.57;0.30;;;15.40;77.70;;;;;;5116190;28;20051;-70
2021/06/04 02:02:36;;;;;;;0.30;0.30;;;15.40;77.70;;;;;;5115822;28;20044;-70
2021/06/04 02:05:07;;;;;;;0.25;0.20;;;15.50;77.50;;;;;;5116073;28;20430;-70
2021/06/04 02:07:33;;;;;;;;;;;15.50;77.40;;;;;;5116513;28;20059;-70
2021/06/04 02:10:02;;;;;;;0.22;0.20;;;15.50;77.20;;;;;;5116140;28;20002;-69
2021/06/04 02:12:29;;;;;;;0.30;0.30;;;15.50;76.90;;;;;;5115622;28;20049;-69
2021/06/04 02:15:06;;;;;;;0.38;0.30;;;15.50;76.70;;;;;;5116034;28;20387;-69
2021/06/04 02:17:57;;;;;;;0.20;0.20;;;15.50;76.40;;;;;;5115887;28;20123;-69
2021/06/04 02:20:31;;;;;;;0.30;0.30;;;15.50;76.30;;;;;;5116091;28;20176;-70
2021/06/04 02:23:04;;;;;;;0.80;0.30;;;15.50;76.20;;;;;;5115473;28;20126;-70
2021/06/04 02:25:48;;;;;;;0.20;0.20;;;15.40;76.30;;;;;;5115627;28;20697;-70
2021/06/04 02:28:44;;;;;;;0.30;0.30;;;15.40;76.50;;;;;;5114832;28;20403;-69
2021/06/04 02:31:16;;;;;;;0.20;0.20;;;15.50;76.40;;;;;;5101008;28;20056;-70
2021/06/04 02:33:50;;;;;;;0.28;0.20;;;15.50;76.50;;;;;;5115280;28;20556;-69
2021/06/04 02:36:30;;;;;;;0.22;0.22;;;15.50;76.40;;;;;;5115064;28;20549;-70
2021/06/04 02:39:05;;;;;;;0.20;0.20;;;15.50;76.30;;;;;;5115040;28;20505;-70
2021/06/04 02:41:43;;;;;;;0.30;0.30;;;15.50;76.20;;;;;;5111636;28;20123;-69
2021/06/04 02:44:24;;;;;;;0.20;0.20;;;15.60;76.20;;;;;;5115492;28;20182;-69
2021/06/04 02:46:56;;;;;;;0.30;0.30;;;15.60;76.00;;;;;;5115494;28;20051;-69
2021/06/04 02:49:24;;;;;;;0.20;0.20;;;15.60;75.90;;;;;;5115312;28;20094;-70
2021/06/04 02:51:59;;;;;;;0.40;0.40;;;15.50;76.00;;;;;;5115038;28;20055;-69
2021/06/04 02:54:31;;;;;;;0.50;0.40;;;15.40;76.30;;;;;;5100738;28;20123;-69
2021/06/04 02:57:03;;;;;;;0.10;0.10;;;15.30;76.20;;;;;;5113310;28;20044;-69
2021/06/04 02:59:33;;;;;;;0.30;0.30;;;15.20;76.20;;;;;;5093204;28;20058;-69
2021/06/04 03:02:08;;;;;;;0.25;0.25;;;15.20;76.00;;;;;;5115080;28;20126;-71
2021/06/04 03:04:38;;;;;;;0.80;0.30;;;15.20;75.90;;;;;;5115001;28;20055;-69
2021/06/04 03:07:08;;;;;;;0.40;0.20;;;15.10;75.80;;;;;;5114105;28;20153;-72
2021/06/04 03:09:38;;;;;;;0.28;0.28;;;15.10;75.70;;;;;;5114945;28;20047;-72
2021/06/04 03:12:19;;;;;;;0.40;0.40;;;15.10;75.50;;;;;;5114874;28;20052;-69
2021/06/04 03:14:48;;;;;;;0.20;0.20;;;15.10;75.70;;;;;;5114573;28;20115;-69
2021/06/04 03:17:16;;;;;;;0.20;0.20;;;15.10;75.60;;;;;;5115033;28;20075;-74
2021/06/04 03:19:43;;;;;;;0.32;0.20;;;15.10;75.50;;;;;;5114270;28;20562;-68
2021/06/04 03:22:12;;;;;;;0.17;0.17;;;15.20;75.60;;;;;;5114556;28;20127;-69
2021/06/04 03:24:40;;;;;;;0.50;0.30;;;15.20;75.60;;;;;;5114349;28;20040;-69
2021/06/04 03:27:08;;;;;;;0.30;0.30;;;15.20;75.50;;;;;;5114455;28;20102;-69
2021/06/04 03:29:34;;;;;;;0.15;0.15;;;15.10;75.40;;;;;;5114535;28;20047;-69
2021/06/04 03:32:05;;;;;;;0.38;0.30;;;15.10;75.30;;;;;;5114766;28;20047;-69
2021/06/04 03:34:31;;;;;;;0.35;0.20;;;15.00;75.30;;;;;;5113462;28;20048;-69
2021/06/04 03:37:00;;;;;;;0.40;0.30;;;14.90;75.40;;;;;;5113856;28;20544;-69
2021/06/04 03:39:31;;;;;;;0.43;0.43;;;14.90;75.50;;;;;;5113152;28;20048;-69
2021/06/04 03:41:59;;;;;;;0.20;0.20;;;14.90;75.50;;;;;;5114152;28;20039;-69
2021/06/04 03:44:30;;;;;;;0.30;0.28;;;14.90;75.50;;;;;;5113925;28;20581;-69
2021/06/04 03:46:57;;;;;;;0.22;0.22;;;14.90;75.50;;;;;;5114534;28;20123;-69
2021/06/04 03:49:25;;;;;;;0.20;0.20;;;14.90;75.40;;;;;;5113936;28;20052;-69
2021/06/04 03:51:54;;;;;;;0.20;0.20;;;15.00;75.40;;;;;;5095275;28;20124;-72
2021/06/04 03:54:26;;;;;;;0.43;0.20;;;15.00;75.20;;;;;;5113592;28;20122;-73
2021/06/04 03:56:52;;;;;;;0.22;0.20;;;15.10;75.10;;;;;;5114176;28;20076;-70
2021/06/04 03:59:19;;;;;;;0.20;0.10;;;15.10;75.10;;;;;;5113517;28;20150;-69
2021/06/04 04:01:51;;;;;;;0.17;0.17;;;15.10;74.90;;;;;;5095131;28;20168;-69
2021/06/04 04:04:18;;;;;;;0.40;0.20;;;15.10;74.80;;;;;;5113525;28;20411;-69
2021/06/04 04:06:45;;;;;;;0.38;0.28;;;15.10;74.70;;;;;;5113263;28;20535;-69
2021/06/04 04:09:12;;;;;;;0.28;0.28;;;15.10;74.60;;;;;;5111700;28;20138;-69
2021/06/04 04:11:40;;;;;;;0.20;0.10;;;15.10;74.50;;;;;;5113674;28;20055;-69
2021/06/04 04:14:07;;;;;;;0.85;0.30;;;15.00;74.50;;;;;;5113030;28;20165;-69
2021/06/04 04:16:34;;;;;;;0.10;0.10;;;15.00;74.60;;;;;;5120202;27;20085;-69
2021/06/04 04:19:01;;;;;;;0.50;0.40;;;14.90;74.60;;;;;;5097977;28;20047;-69
2021/06/04 04:21:27;;;;;;;0.25;0.25;;;14.90;74.70;;;;;;5127029;27;20497;-69
2021/06/04 04:23:57;;;;;;;0.30;0.30;;;14.90;74.70;;;;;;5125310;27;20059;-69
2021/06/04 04:26:30;;;;;;;0.30;0.30;;;14.90;74.70;;;;;;5123531;27;20047;-68
2021/06/04 04:28:57;;;;;;;0.20;0.20;;;14.90;74.60;;;;;;5122269;27;20177;-69
2021/06/04 04:31:28;;;;;;;0.20;0.20;;;14.90;74.50;;;;;;5123592;27;20122;-69
2021/06/04 04:33:55;;;;;;;0.57;0.30;;;15.00;74.50;;;;;;5123610;27;20054;-70
2021/06/04 04:36:27;;;;;;;0.10;0.10;;;15.00;74.40;;;;;;5119329;27;20168;-69
2021/06/04 04:38:54;;;;;;;0.22;0.22;;;15.00;74.20;;;;;;5120834;27;20118;-69
2021/06/04 04:41:21;;;;;;;0.30;0.30;;;15.00;74.20;;;;;;5118363;27;20115;-69
2021/06/04 04:43:50;;;;;;;0.25;0.25;;;15.00;74.10;;;;;;5118421;27;20497;-69
2021/06/04 04:46:19;;;;;;;0.47;0.20;;;15.00;74.00;;;;;;5112965;28;20044;-69
2021/06/04 04:48:45;;;;;;;0.20;0.20;;;15.00;74.20;;;;;;5114941;27;20112;-69
2021/06/04 04:51:13;;;;;;;0.45;0.10;;;15.00;74.20;;;;;;5114801;27;20126;-69
2021/06/04 04:53:40;;;;;;;0.35;0.30;;;15.10;74.10;;;;;;5114331;27;20075;-69
2021/06/04 04:56:08;;;;;;;0.20;0.20;;;15.10;74.10;;;;;;5110229;28;20039;-68
2021/06/04 04:58:36;;;;;;;0.30;0.30;;;15.10;73.90;;;;;;5114736;27;20040;-69
2021/06/04 05:01:05;;;;;;;0.40;0.20;;;15.10;73.70;;;;;;5116942;27;20059;-69
2021/06/04 05:03:32;;;;;;;0.50;0.40;;;15.10;73.40;;;;;;5116736;27;20126;-69
2021/06/04 05:05:58;;;;;;;0.30;0.30;;;15.10;73.40;;;;;;5097946;27;20047;-69
2021/06/04 05:08:24;;;;;;;0.20;0.20;;;15.10;73.40;;;;;;5107946;27;20138;-69
2021/06/04 05:10:51;;;;;;;0.45;0.40;;;15.10;73.40;;;;;;5120365;27;20118;-69
2021/06/04 05:13:19;;;;;;;0.40;0.40;;;15.00;73.20;;;;;;5122523;27;20612;-69
2021/06/04 05:15:46;;;;;;;0.20;0.20;;;15.00;73.30;;;;;;5118571;27;20048;-70
2021/06/04 05:18:15;;;;;;;0.10;0.10;;;15.00;73.50;;;;;;5105401;27;20179;-70
2021/06/04 05:20:43;;;;;;;0.20;0.10;;;15.00;73.60;;;;;;5127620;27;20134;-70
2021/06/04 05:23:11;;;;;;;0.20;0.20;;;15.10;73.70;;;;;;5128522;27;20418;-70
2021/06/04 05:25:41;;;;;;;0.30;0.30;;;15.10;73.90;;;;;;5129519;27;20126;-71
2021/06/04 05:28:08;;;;;;;0.55;0.13;;;15.10;73.90;;;;;;5127112;28;20058;-70
2021/06/04 05:30:41;;;;;;;0.32;0.30;;;15.10;73.70;;;;;;5133878;27;20620;-70
2021/06/04 05:33:10;;;;;;;0.20;0.20;;;15.10;73.70;;;;;;5132906;27;20111;-69
2021/06/04 05:35:37;;;;;;;0.22;0.20;;;15.20;73.90;;;;;;5135899;27;20039;-69
2021/06/04 05:38:03;;;;;;;0.20;0.20;;;15.20;73.70;;;;;;5132339;27;20516;-69
2021/06/04 05:40:35;;;;;;;0.55;0.35;;;15.20;73.60;;;;;;5134823;27;20062;-70
2021/06/04 05:43:03;;;;;;;0.20;0.20;;;15.20;73.50;;;;;;5132733;27;20043;-69
2021/06/04 05:45:32;;;;;;;0.28;0.25;;;15.10;73.60;;;;;;5136104;27;20175;-69
2021/06/04 05:47:59;;;;;;;0.30;0.30;;;15.10;73.90;;;;;;5133015;27;20167;-70
2021/06/04 05:50:29;;;;;;;0.40;0.30;;;15.10;73.90;;;;;;5134976;27;20043;-69
2021/06/04 05:52:56;;;;;;;;;;;15.10;73.80;;;;;;5127936;27;20494;-69
2021/06/04 05:55:25;;;;;;;0.20;0.20;;;15.10;73.50;;;;;;5117666;28;20064;-70
2021/06/04 05:57:53;;;;;;;0.30;0.22;;;15.10;73.50;;;;;;5118402;28;20043;-70
2021/06/04 06:00:35;;;;;;;0.32;0.30;;;15.10;73.60;;;;;;5117853;28;20423;-70
2021/06/04 06:03:05;;;;;;;0.57;0.40;;;15.00;73.50;;;;;;5118174;28;20173;-70
2021/06/04 06:05:31;;;;;;;0.57;0.40;;;15.00;73.50;;;;;;5117105;28;20050;-69
2021/06/04 06:07:58;;;;;;;0.20;0.20;;;15.00;73.50;;;;;;5107454;27;20093;-70
2021/06/04 06:10:24;;;;;;;0.20;0.20;;;14.90;73.40;;;;;;5108294;27;20055;-69
2021/06/04 06:12:52;;;;;;;0.20;0.20;;;15.00;73.60;;;;;;5129209;27;20126;-70
2021/06/04 06:15:21;;;;;;;0.20;0.20;;;15.00;73.70;;;;;;5118039;27;20079;-69
2021/06/04 06:17:48;;;;;;;0.30;0.30;;;15.00;73.70;;;;;;5118699;27;20126;-70
2021/06/04 06:20:17;;;;;;;0.30;0.30;;;15.10;73.70;;;;;;5117539;27;20440;-70
2021/06/04 06:22:44;;;;;;;0.20;0.13;;;15.10;73.70;;;;;;5118392;27;20604;-70
2021/06/04 06:25:17;;;;;;;0.22;0.20;;;15.20;73.70;;;;;;5103161;28;20126;-70
2021/06/04 06:27:44;;;;;;;0.30;0.30;;;15.20;73.60;;;;;;5120492;27;20097;-69
2021/06/04 06:30:17;;;;;;;0.30;0.30;;;15.30;73.50;;;;;;5120362;27;20557;-70
2021/06/04 06:32:43;;;;;;;0.32;0.22;;;15.30;73.30;;;;;;5118783;27;20149;-69
2021/06/04 06:35:12;;;;;;;0.20;0.20;;;15.20;73.10;;;;;;5099198;28;20520;-70
2021/06/04 06:37:38;;;;;;;0.20;0.20;;;15.30;73.20;;;;;;5118535;27;20078;-70
2021/06/04 06:40:06;;;;;;;0.52;0.40;;;15.30;73.30;;;;;;5099587;28;20118;-70
2021/06/04 06:42:33;;;;;;;0.65;0.30;;;15.30;73.30;;;;;;5094552;28;20169;-70
2021/06/04 06:44:59;;;;;;;0.32;0.30;;;15.20;73.30;;;;;;5119346;27;20143;-69
2021/06/04 06:47:25;;;;;;;0.20;0.20;;;15.20;73.60;;;;;;5116209;27;20055;-69
2021/06/04 06:49:52;;;;;;;0.20;0.10;;;15.20;73.70;;;;;;5116923;27;20241;-69
2021/06/04 06:52:18;;;;;;;0.57;0.50;;;15.20;73.90;;;;;;5118764;27;20435;-68
2021/06/04 06:54:45;;;;;;;0.68;0.40;;;15.20;73.70;;;;;;5114311;28;20043;-69
2021/06/04 06:57:11;;;;;;;0.50;0.43;;;15.20;73.90;;;;;;5116619;27;20127;-69
2021/06/04 06:59:37;;;;;;;0.40;0.40;;;15.20;73.80;;;;;;5099519;27;20558;-69
2021/06/04 07:02:08;;;;;;;0.38;0.25;;;15.20;74.00;;;;;;5121216;27;20043;-69
2021/06/04 07:04:35;;;;;;;0.47;0.30;;;15.20;74.20;;;;;;5122090;27;20126;-69
2021/06/04 07:07:01;;;;;;;0.30;0.30;;;15.20;74.50;;;;;;5117101;27;20115;-69
2021/06/04 07:09:28;;;;;;;0.10;0.10;;;15.20;74.50;;;;;;5129853;27;20130;-69
2021/06/04 07:11:55;;;;;;;0.32;0.30;;;15.20;74.50;;;;;;5132866;27;20134;-69
2021/06/04 07:14:26;;;;;;;0.32;0.30;;;15.20;74.50;;;;;;5130900;27;20392;-69
2021/06/04 07:16:53;;;;;;;0.25;0.25;;;15.30;74.70;;;;;;5132499;27;20126;-69
2021/06/04 07:19:20;;;;;;;0.32;0.20;;;15.30;74.70;;;;;;5130765;27;20438;-69
2021/06/04 07:21:47;;;;;;;0.30;0.30;;;15.30;74.70;;;;;;5132437;27;20486;-69
2021/06/04 07:24:15;;;;;;;0.30;0.30;;;15.40;74.90;;;;;;5126493;27;20138;-70
2021/06/04 07:26:45;;;;;;;1.00;0.50;;;15.40;74.80;;;;;;5127656;27;20047;-70
2021/06/04 07:29:15;;;;;;;0.35;0.30;;;15.40;75.70;;;;;;5131923;27;20478;-69
2021/06/04 07:31:42;;;;;;;0.40;0.40;;;15.40;74.70;;;;;;5125683;27;20126;-70
2021/06/04 07:34:09;;;;;;;0.28;0.28;;;15.40;74.70;;;;;;5132587;27;20054;-69
2021/06/04 07:36:38;;;;;;;0.85;0.50;;;15.40;74.90;;;;;;5108420;27;20172;-69
2021/06/04 07:39:12;;;;;;;0.30;0.30;;;15.50;74.90;;;;;;5114500;27;20040;-69
2021/06/04 07:41:39;;;;;;;0.55;0.55;;;15.50;74.80;;;;;;5117178;27;20153;-69
2021/06/04 07:44:06;;;;;;;0.38;0.38;;;15.40;74.70;;;;;;5124429;27;20147;-70
2021/06/04 07:46:33;;;;;;;0.38;0.38;;;15.40;74.90;;;;;;5117388;27;20131;-70
2021/06/04 07:48:59;;;;;;;0.30;0.30;;;15.50;75.20;;;;;;5116630;27;20499;-70
2021/06/04 07:51:29;;;;;;;0.75;0.50;;;15.50;75.10;;;;;;5116095;27;20092;-69
2021/06/04 07:53:56;;;;;;;0.70;0.55;;;15.60;75.20;;;;;;5114814;27;20079;-69
2021/06/04 07:56:23;;;;;;;0.20;0.20;;;15.60;75.30;;;;;;5113292;28;20127;-69
2021/06/04 07:58:49;;;;;;;0.40;0.30;;;15.60;75.20;;;;;;5112767;28;20127;-70
2021/06/04 08:01:17;;;;;;;0.57;0.40;;;15.70;76.00;;;;;;5113037;28;20126;-70
2021/06/04 08:03:44;;;;;;;0.47;0.45;;;15.70;75.00;;;;;;5113244;28;20554;-69
2021/06/04 08:06:12;;;;;;;0.40;0.30;;;15.60;75.10;;;;;;5094286;28;20051;-69
2021/06/04 08:08:39;;;;;;;0.40;0.40;;;15.70;75.20;;;;;;5112590;28;20525;-70
2021/06/04 08:11:08;;;;;;;0.45;0.45;;;15.70;75.20;;;;;;5113881;27;20048;-70
2021/06/04 08:13:35;;;;;;;0.50;0.47;;;15.70;75.00;;;;;;5113594;27;20193;-69
2021/06/04 08:16:06;;;;;;;0.20;0.20;;;15.70;75.00;;;;;;5112925;27;20540;-69
2021/06/04 08:18:36;;;;;;;0.70;0.50;;;15.70;74.90;;;;;;5094454;28;20118;-70
2021/06/04 08:21:08;;;;;;;0.73;0.50;;;15.80;75.00;;;;;;5113519;27;20071;-70
2021/06/04 08:23:37;;;;;;;0.60;0.50;;;15.90;75.00;;;;;;5113073;28;20518;-70
2021/06/04 08:26:08;;;;;;;0.38;0.38;;;15.90;74.80;;;;;;5112649;27;20131;-70
2021/06/04 08:28:35;;;;;;;0.40;0.40;;;16.00;74.70;;;;;;5113177;28;20055;-70
2021/06/04 08:31:02;;;;;;;0.30;0.30;;;16.00;74.50;;;;;;5112960;27;20128;-70
2021/06/04 08:33:32;;;;;;;0.30;0.30;;;16.10;74.50;;;;;;5112889;27;20052;-70
2021/06/04 08:35:59;;;;;;;0.75;0.43;;;16.20;74.50;;;;;;5112620;28;20050;-70
2021/06/04 08:38:29;;;;;;;0.40;0.40;;;16.20;74.10;;;;;;5113277;28;20133;-70
2021/06/04 08:41:02;;;;;;;0.65;0.52;;;16.30;73.80;;;;;;5112656;27;20127;-70
2021/06/04 08:44:02;;;;;;;0.40;0.40;;;16.20;73.30;;;;;;5113001;27;20055;-70
2021/06/04 08:46:33;;;;;;;0.73;0.60;;;16.10;73.00;;;;;;5094808;28;20519;-70
2021/06/04 08:49:07;;;;;;;0.32;0.30;;;16.00;73.10;;;;;;5112484;27;20462;-70
2021/06/04 08:51:40;;;;;;;0.80;0.50;;;16.00;73.40;;;;;;5113086;27;20117;-70
2021/06/04 08:54:31;;;;;;;0.43;0.40;;;16.00;73.70;;;;;;5112240;28;20051;-70
2021/06/04 08:57:25;;;;;;;0.68;0.32;;;16.00;73.90;;;;;;5112267;28;20043;-70
2021/06/04 08:59:54;;;;;;;0.60;0.40;;;16.00;73.80;;;;;;5048686;28;20577;-70
2021/06/04 09:02:33;;;;;;;0.30;0.30;;;16.00;73.90;;;;;;5048801;28;20045;-70
2021/06/04 09:05:09;;;;;;;0.45;0.45;;;15.90;73.90;;;;;;5048654;28;20159;-70
2021/06/04 09:07:40;;;;;;;0.40;0.40;;;16.00;74.30;;;;;;5048973;28;20086;-70
2021/06/04 09:10:09;;;;;;;;;;;16.00;74.40;;;;;;5049715;28;20132;-70
2021/06/04 09:13:06;;;;;;;3.10;0.50;;;15.90;74.60;;;;;;5062018;28;19927;-70
2021/06/04 09:15:36;;;;;;;0.73;0.50;;;15.90;74.60;;;;;;5048512;28;20056;-70
2021/06/04 09:18:12;;;;;;;0.35;0.30;;;16.00;74.40;;;;;;5066536;28;20040;-68
2021/06/04 09:20:57;;;;;;;0.55;0.50;;;16.00;74.40;;;;;;5068039;28;20045;-68
2021/06/04 09:23:39;;;;;;;0.40;0.28;;;16.00;74.40;;;;;;5050746;28;20048;-68
2021/06/04 09:26:09;;;;;;;0.52;0.47;;;16.10;74.50;;;;;;5050322;28;20175;-68
2021/06/04 09:28:48;;;;;;;0.40;0.40;;;16.10;74.30;;;;;;5049065;28;20041;-68
2021/06/04 09:31:47;;;;;;;0.50;0.38;;;16.10;74.10;;;;;;5054343;28;20041;-68
2021/06/04 09:34:23;;;;;;;0.63;0.50;;;16.10;74.40;;;;;;5045154;28;20095;-68
2021/06/04 09:37:03;;;;;;;0.40;0.40;;;16.10;74.20;;;;;;5086034;28;20121;-68
2021/06/04 09:39:46;;;;;;;0.30;0.30;;;16.00;73.80;;;;;;5116238;28;20131;-68
2021/06/04 09:42:31;;;;;;;1.10;0.55;;;16.10;73.90;;;;;;5113781;28;20142;-70
2021/06/04 09:45:12;;;;;;;0.57;0.55;;;16.10;73.90;;;;;;5118686;28;20047;-71
2021/06/04 09:47:59;;;;;;;0.55;0.40;;;16.10;73.70;;;;;;5097382;28;20134;-70
2021/06/04 09:50:42;;;;;;;0.60;0.40;;;16.20;73.50;;;;;;5119796;28;20085;-71
2021/06/04 09:53:19;;;;;;;0.50;0.50;;;16.20;73.00;;;;;;5115416;28;20074;-68
2021/06/04 09:55:52;;;;;;;0.60;0.50;;;16.30;72.90;;;;;;5092751;28;20086;-68
2021/06/04 09:58:29;;;;;;;0.50;0.45;;;16.30;72.70;;;;;;5111725;28;20621;-68
2021/06/04 10:00:56;;;;;;;0.75;0.47;;;16.40;72.20;;;;;;5109542;28;20095;-68
2021/06/04 10:03:41;;;;;;;0.75;0.47;;;16.40;72.20;;;;;;5096951;28;20055;-68
2021/06/04 10:06:08;;;;;;;0.57;0.57;;;16.50;72.10;;;;;;5114979;28;20043;-68
2021/06/04 10:09:02;;;;;;;0.65;0.30;;;16.60;71.90;;;;;;5092296;28;20415;-68
2021/06/04 10:11:50;;;;;;;0.55;0.55;;;16.70;71.70;;;;;;5066858;28;20055;-68
2021/06/04 10:14:31;;;;;;;0.40;0.32;;;16.80;71.30;;;;;;5068761;28;20048;-68
2021/06/04 10:19:49;;;;;;;0.40;0.40;;;17.10;70.40;;;;;;5096744;28;20052;-68
2021/06/04 10:22:36;;;;;;;0.73;0.40;;;17.30;70.20;;;;;;5091272;28;20051;-68
2021/06/04 10:25:05;;;;;;;0.38;0.38;;;17.50;69.70;;;;;;5085508;28;20473;-68
2021/06/04 10:27:42;;;;;;;0.40;0.32;;;17.60;68.90;;;;;;5089523;28;20056;-68
2021/06/04 10:30:23;;;;;;;0.40;0.40;;;17.60;68.50;;;;;;5085829;28;20423;-69
2021/06/04 10:33:13;;;;;;;1.00;0.50;;;17.70;68.70;;;;;;5090887;28;20090;-68
2021/06/04 10:35:47;;;;;;;0.40;0.40;;;17.80;68.60;;;;;;5090682;28;20063;-68
2021/06/04 10:38:26;;;;;;;0.45;0.45;;;17.80;68.50;;;;;;5090637;28;20080;-68
2021/06/04 10:41:09;;;;;;;0.63;0.50;;;18.00;68.60;;;;;;5096173;28;20040;-69
2021/06/04 10:44:07;;;;;;;0.30;0.30;;;18.10;68.20;;;;;;5071583;28;20048;-68
2021/06/04 10:46:45;;;;;;;0.30;0.30;;;18.10;67.40;;;;;;5090473;28;20530;-68
2021/06/04 10:49:26;;;;;;;0.30;0.30;;;18.20;67.20;;;;;;5090340;28;20044;-68
2021/06/04 10:52:18;;;;;;;0.50;0.45;;;18.30;67.50;;;;;;5090677;28;20188;-70
2021/06/04 10:55:10;;;;;;;0.45;0.40;;;18.30;66.70;;;;;;5071820;28;20048;-68
2021/06/04 10:57:56;;;;;;;0.65;0.50;;;18.40;67.40;;;;;;5089161;28;20181;-68
2021/06/04 11:00:32;;;;;;;0.80;0.63;;;18.50;66.20;;;;;;5090581;28;20052;-68
2021/06/04 11:03:10;;;;;;;0.30;0.28;;;18.60;65.30;;;;;;5090746;28;20079;-68
2021/06/04 11:05:58;;;;;;;0.50;0.43;;;18.60;65.00;;;;;;5071305;28;20052;-68
2021/06/04 11:08:36;;;;;;;0.40;0.40;;;18.70;65.40;;;;;;5102628;28;20411;-69
2021/06/04 11:11:20;;;;;;;0.68;0.50;;;18.70;64.90;;;;;;5108933;28;20154;-68
2021/06/04 11:13:59;;;;;;;0.50;0.45;;;18.70;64.30;;;;;;5105311;28;20557;-68
2021/06/04 11:16:28;;;;;;;1.17;0.50;;;18.60;64.30;;;;;;5107273;28;20120;-68
2021/06/04 11:19:00;;;;;;;0.40;0.30;;;18.60;64.30;;;;;;5102480;28;20134;-68
2021/06/04 11:21:52;;;;;;;0.40;0.40;;;18.70;64.30;;;;;;5110006;28;20052;-68
2021/06/04 11:24:27;;;;;;;0.50;0.50;;;18.80;64.40;;;;;;5109181;28;20048;-68
2021/06/04 11:26:55;;;;;;;0.50;0.50;;;18.80;64.60;;;;;;5110220;28;20131;-69
2021/06/04 11:29:30;;;;;;;0.38;0.30;;;18.80;64.40;;;;;;5109487;28;20224;-68
2021/06/04 11:32:26;;;;;;;0.40;0.30;;;18.90;64.40;;;;;;5110252;28;20052;-69
2021/06/04 11:34:55;;;;;;;0.82;0.50;;;18.90;64.20;;;;;;5108277;28;20570;-69
2021/06/04 11:37:35;;;;;;;0.40;0.40;;;18.90;63.60;;;;;;5109555;28;20051;-69
2021/06/04 11:40:17;;;;;;;0.52;0.52;;;19.00;64.40;;;;;;5108502;28;20104;-68
2021/06/04 11:42:53;;;;;;;0.60;0.50;;;19.00;62.90;;;;;;5102626;28;20047;-70
2021/06/04 11:45:22;;;;;;;0.75;0.65;;;19.00;62.70;;;;;;5110414;28;20047;-70
2021/06/04 11:47:50;;;;;;;0.52;0.52;;;19.00;63.00;;;;;;5110478;28;20101;-68
2021/06/04 11:50:26;;;;;;;0.40;0.38;;;19.00;63.30;;;;;;5110471;28;20047;-68
2021/06/04 11:53:15;;;;;;;0.45;0.45;;;19.00;62.80;;;;;;5109838;28;20132;-68
2021/06/04 11:55:42;;;;;;;0.40;0.40;;;19.00;62.90;;;;;;5110057;28;20047;-68
2021/06/04 11:58:43;;;;;;;0.30;0.30;;;19.00;62.90;;;;;;5110188;28;20096;-68
2021/06/04 12:01:21;;;;;;;0.50;0.30;;;19.00;63.10;;;;;;5110069;28;20122;-68
2021/06/04 12:04:05;;;;;;;0.52;0.47;;;19.10;62.70;;;;;;5105978;28;20047;-68
2021/06/04 12:06:41;;;;;;;0.25;0.25;;;19.10;61.70;;;;;;5112274;27;20162;-68
2021/06/04 12:09:47;;;;;;;0.35;0.30;;;19.10;62.00;;;;;;5112903;27;20429;-68
2021/06/04 12:12:16;;;;;;;0.35;0.32;;;19.00;62.30;;;;;;5124366;27;20082;-70
2021/06/04 12:15:06;;;;;;;0.40;0.30;;;19.00;62.50;;;;;;5108793;28;20422;-68
2021/06/04 12:17:34;;;;;;;0.40;0.30;;;19.00;62.40;;;;;;5096293;28;20051;-68
2021/06/04 12:20:22;;;;;;;0.57;0.40;;;19.00;62.40;;;;;;5109323;28;20490;-68
2021/06/04 12:22:58;;;;;;;0.30;0.30;;;19.10;61.30;;;;;;5109720;27;20122;-68
2021/06/04 12:25:46;;;;;;;0.52;0.40;;;19.00;60.50;;;;;;5117990;27;20529;-68
2021/06/04 12:28:18;;;;;;;0.32;0.32;;;19.00;61.10;;;;;;5124932;27;20561;-67
2021/06/04 12:30:56;;;;;;;0.43;0.40;;;19.00;61.20;;;;;;5127945;27;20654;-68
2021/06/04 12:33:34;;;;;;;0.20;0.20;;;19.00;61.50;;;;;;5106997;27;20655;-68
2021/06/04 12:36:01;;;;;;;0.70;0.55;;;19.10;61.60;;;;;;5126497;27;20051;-68
2021/06/04 12:38:33;;;;;;;0.43;0.28;;;19.20;61.10;;;;;;5126681;27;20126;-70
2021/06/04 12:41:06;;;;;;;0.35;0.30;;;19.30;61.70;;;;;;5120354;27;20055;-71
2021/06/04 12:43:34;;;;;;;0.50;0.30;;;19.50;61.30;;;;;;5127332;27;20051;-70
2021/06/04 12:46:22;;;;;;;0.40;0.40;;;19.60;60.20;;;;;;5120343;27;20581;-68
2021/06/04 12:49:02;;;;;;;0.70;0.30;;;19.70;60.10;;;;;;5109784;27;20047;-68
2021/06/04 12:51:29;;;;;;;0.30;0.30;;;19.90;60.20;;;;;;5107835;27;20102;-68
2021/06/04 12:54:05;;;;;;;0.35;0.35;;;20.00;60.00;;;;;;5108057;28;20127;-68
2021/06/04 12:56:42;;;;;;;0.20;0.20;;;20.10;59.30;;;;;;5109144;27;20104;-68
2021/06/04 12:59:14;;;;;;;0.45;0.40;;;20.20;59.10;;;;;;5114419;27;20439;-68
2021/06/04 13:02:07;;;;;;;0.50;0.40;;;20.20;58.50;;;;;;5112572;27;20233;-68
2021/06/04 13:04:40;;;;;;;0.40;0.40;;;20.20;58.80;;;;;;5104141;28;20051;-68
2021/06/04 13:07:37;;;;;;;0.35;0.35;;;20.10;59.30;;;;;;5108456;27;20048;-68
2021/06/04 13:10:12;;;;;;;0.32;0.32;;;20.10;58.50;;;;;;5114007;27;20573;-68
2021/06/04 13:12:41;;;;;;;0.43;0.43;;;20.10;58.70;;;;;;5117824;27;20086;-68
2021/06/04 13:15:28;;;;;;;0.30;0.30;;;20.10;58.50;;;;;;5118614;27;20459;-68
2021/06/04 13:18:04;;;;;;;0.30;0.30;;;20.20;58.10;;;;;;5118776;27;20118;-67
2021/06/04 13:20:40;;;;;;;0.32;0.32;;;20.20;57.90;;;;;;5111081;28;20369;-68
2021/06/04 13:23:20;;;;;;;0.30;0.30;;;20.20;58.00;;;;;;5110512;27;20088;-68